Condiciones actuales en los principales Aeropuertos de España-Datos Metar

 

LEAL - Alicante
Actualización: 27/05/2018 09:30
Mostly Cloudy
Mostly Cloudy
 Viento del SO
Viento: SO 9 km/h
Temperatura: 20°C
Rocío: 16°C
Humedad: 78%
Barómetro: 1013 hPa
Nubosidad: Mostly Cloudy
Visibilidad: 9 km
Cloud details: Mostly Cloudy 671 m
2018/05/27 07:30 LEAL 270730Z 22005KT 170V260 9000 BKN022 20/16 Q1013 NOSIG
LEAB - Albacete
Actualización: 27/05/2018 09:00
Despejado
Despejado
 Viento del varies
Viento: varies 4 km/h
Temperatura: 14°C
Rocío: 11°C
Humedad: 82%
Barómetro: 1015 hPa
Resumen: Despejado
Visibilidad: greater than 10 km
2018/05/27 07:00 LEAB 270700Z VRB02KT CAVOK 14/11 Q1015 NOSIG
LEAM - Almería
Actualización: 27/05/2018 09:30
Mostly Cloudy
Mostly Cloudy
 Viento del SO
Viento: SO 6 km/h
Temperatura: 19°C
Rocío: 16°C
Humedad: 83%
Barómetro: 1014 hPa
Nubosidad: Mostly Cloudy
Visibilidad: 10 km
Cloud details: Few Clouds 305 m
Mostly Cloudy 2743 m
2018/05/27 07:30 LEAM 270730Z 23003KT 170V270 9999 FEW010 BKN090 19/16 Q1014
 
LEAS - Asturias/Aviles
Actualización: 27/05/2018 09:30
Mostly Cloudy
Mostly Cloudy
 Viento del ONO
Viento: ONO 7 km/h
Temperatura: 15°C
Rocío: 13°C
Humedad: 88%
Barómetro: 1015 hPa
Nubosidad: Mostly Cloudy
Visibilidad: 6 km
Cloud details: Few Clouds 152 m
Mostly Cloudy 549 m
2018/05/27 07:30 LEAS 270730Z 29004KT 250V320 6000 FEW005 BKN018 15/13 Q1015 TEMPO 2000 BR BKN010
LEBZ - Badajoz/Talavera la Real
Actualización: 27/05/2018 09:00
Few Clouds
Few Clouds
 Viento del SSO
Viento: SSO 6 km/h
Temperatura: 17°C
Rocío: 15°C
Humedad: 88%
Barómetro: 1014 hPa
Nubosidad: Few Clouds
Visibilidad: 10 km
Cloud details: Few Clouds 1219 m
2018/05/27 07:00 LEBZ 270700Z 21003KT 9999 FEW040 17/15 Q1014
LEBL - Barcelona
Actualización: 27/05/2018 09:30
Partly Cloudy
Partly Cloudy
 Viento del ENE
Viento: ENE 24 km/h
Temperatura: 21°C
Rocío: 15°C
Humedad: 69%
Barómetro: 1012 hPa
Nubosidad: Partly Cloudy
Visibilidad: 10 km
Cloud details: Few Clouds 762 m
Partly Cloudy 914 m
2018/05/27 07:30 LEBL 270730Z 06013KT 9999 FEW025 SCT030 21/15 Q1012 NOSIG
 
LEBB - Bilbao
Actualización: 27/05/2018 09:30
Mostly Cloudy
Mostly Cloudy
 Viento del ESE
Viento: ESE 7 km/h
Temperatura: 18°C
Rocío: 15°C
Humedad: 83%
Barómetro: 1015 hPa
Nubosidad: Mostly Cloudy
Visibilidad: 10 km
Cloud details: Few Clouds 457 m
Mostly Cloudy 853 m
2018/05/27 07:30 LEBB 270730Z 12004KT 080V150 9999 FEW015 BKN028 18/15 Q1015 NOSIG
LEBG - Burgos/Villafría
Actualización: 27/05/2018 09:30
Few Clouds
Few Clouds
 Viento del calm
Viento: Calma
Temperatura: 13°C
Rocío: 9°C
Humedad: 77%
Barómetro: 1016 hPa
Nubosidad: Few Clouds
Visibilidad: 10 km
Cloud details: Few Clouds 914 m
2018/05/27 07:30 LEBG 270730Z 00000KT 9999 FEW030 13/09 Q1016
LEBA - Córdoba
Actualización: 27/05/2018 09:30
Mist, Cubierto
Mist, Cubierto
 Viento del O
Viento: O 13 km/h
Temperatura: 16°C
Rocío: 14°C
Humedad: 88%
Barómetro: 1015 hPa
Resumen: Mist
Nubosidad: Cubierto
Visibilidad: 4 km
Cloud details: Cubierto 213 m
2018/05/27 07:30 LEBA 270730Z 27007KT 4000 BR OVC007 16/14 Q1015
 
LEGE - Gerona
Actualización: 27/05/2018 09:30
Few Clouds
Few Clouds
 Viento del NNE
Viento: NNE 7 km/h
Temperatura: 19°C
Rocío: 14°C
Humedad: 73%
Barómetro: 1014 hPa
Nubosidad: Few Clouds
Visibilidad: 10 km
Cloud details: Few Clouds 1524 m
2018/05/27 07:30 LEGE 270730Z 02004KT 350V060 9999 FEW050 19/14 Q1014
LEGR - Granada
Actualización: 01/01/1970 01:00
NO Actualizado
unable to load LEGR data RC=404 Not Found
unable to load LEGR data RC=404 Not Found
 
GCHI - Hierro
Actualización: 27/05/2018 09:30
Few Clouds
Few Clouds
 Viento del NNE
Viento: NNE 28 km/h
Temperatura: 19°C
Rocío: 13°C
Humedad: 68%
Barómetro: 1020 hPa
Nubosidad: Few Clouds
Visibilidad: 10 km
Cloud details: Few Clouds 914 m
2018/05/27 07:30 GCHI 270730Z 02015KT 350V050 9999 FEW030 19/13 Q1020
 
LEIB - Ibiza
Actualización: 27/05/2018 09:30
Mostly Cloudy
Mostly Cloudy
 Viento del NO
Viento: NO 13 km/h
Temperatura: 22°C
Rocío: 16°C
Humedad: 69%
Barómetro: 1012 hPa
Nubosidad: Mostly Cloudy
Visibilidad: 10 km
Cloud details: Partly Cloudy 579 m
Mostly Cloudy 640 m
2018/05/27 07:30 LEIB 270730Z 32007KT 270V360 9999 SCT019 BKN021 22/16 Q1012 NOSIG
LEJR - Jerez de la Frontera
Actualización: 27/05/2018 10:00
Few Clouds
Few Clouds
 Viento del SSO
Viento: SSO 15 km/h
Temperatura: 20°C
Rocío: 15°C
Humedad: 73%
Barómetro: 1015 hPa
Nubosidad: Few Clouds
Visibilidad: 9 km
Cloud details: Few Clouds 457 m
2018/05/27 08:00 LEJR 270800Z 20008KT 160V230 9000 FEW015 20/15 Q1015
LECO - A Coruña
Actualización: 27/05/2018 09:30
Cubierto
Cubierto
 Viento del varies
Viento: varies 4 km/h
Temperatura: 14°C
Rocío: 12°C
Humedad: 88%
Barómetro: 1016 hPa
Nubosidad: Cubierto
Visibilidad: 10 km
Cloud details: Few Clouds 518 m
Cubierto 1158 m
2018/05/27 07:30 LECO 270730Z VRB02KT 9999 FEW017 OVC038 14/12 Q1016 TEMPO BKN010
 
GCLA - La Palma
Actualización: 27/05/2018 09:30
Mostly Cloudy
Mostly Cloudy
 Viento del N
Viento: N 17 km/h
Temperatura: 18°C
Rocío: 12°C
Humedad: 68%
Barómetro: 1021 hPa
Nubosidad: Mostly Cloudy
Visibilidad: 10 km
Cloud details: Mostly Cloudy 1219 m
2018/05/27 07:30 GCLA 270730Z 01009KT 330V060 9999 BKN040 18/12 Q1021
GCRR - Lanzarote
Actualización: 27/05/2018 09:30
Few Clouds
Few Clouds
 Viento del N
Viento: N 19 km/h
Temperatura: 19°C
Rocío: 13°C
Humedad: 68%
Barómetro: 1019 hPa
Nubosidad: Few Clouds
Visibilidad: 10 km
Cloud details: Few Clouds 914 m
2018/05/27 07:30 GCRR 270730Z 35010KT 320V030 9999 FEW030 19/13 Q1019
GCLP - Las Palmas
Actualización: 27/05/2018 09:30
Few Clouds
Few Clouds
 Viento del N
Viento: N 24 km/h
Temperatura: 19°C
Rocío: 12°C
Humedad: 64%
Barómetro: 1020 hPa
Nubosidad: Few Clouds
Visibilidad: 10 km
Cloud details: Few Clouds 914 m
2018/05/27 07:30 GCLP 270730Z 35013KT 9999 FEW030 19/12 Q1020 NOSIG
 
LELN - León
Actualización: 27/05/2018 09:00
Despejado
Despejado
 Viento del varies
Viento: varies 4 km/h
Temperatura: 12°C
Rocío: 10°C
Humedad: 88%
Barómetro: 1015 hPa
Resumen: Despejado
Visibilidad: greater than 10 km
2018/05/27 07:00 LELN 270700Z VRB02KT CAVOK 12/10 Q1015
LELO - Logroño
Actualización: 27/05/2018 09:00
Few Clouds
Few Clouds
 Viento del O
Viento: O 13 km/h
Temperatura: 15°C
Rocío: 13°C
Humedad: 88%
Barómetro: 1015 hPa
Nubosidad: Few Clouds
Visibilidad: 10 km
Cloud details: Few Clouds 610 m
2018/05/27 07:00 LELO 270700Z 27007KT 230V290 9999 FEW020 15/13 Q1015
LECV - Madrid/Colmenar
Actualización: 27/05/2018 09:00
Few Clouds
Few Clouds
 Viento del calm
Viento: Calma
Temperatura: 18°C
Rocío: 10°C
Humedad: 60%
Barómetro: 1016 hPa
Nubosidad: Few Clouds
Visibilidad: 10 km
Cloud details: Few Clouds 1524 m
2018/05/27 07:00 LECV 270700Z 00000KT 9999 FEW050 18/10 Q1016
 
LEMD - Madrid/Barajas
Actualización: 27/05/2018 09:30
Few Clouds
Few Clouds
 Viento del varies
Viento: varies 2 km/h
Temperatura: 15°C
Rocío: 11°C
Humedad: 77%
Barómetro: 1015 hPa
Nubosidad: Few Clouds
Visibilidad: 10 km
Cloud details: Few Clouds 1829 m
2018/05/27 07:30 LEMD 270730Z VRB01KT 9999 FEW060 15/11 Q1015 NOSIG
LEVS - Madrid/Cuatro Vientos
Actualización: 27/05/2018 09:30
Despejado
Despejado
 Viento del ENE
Viento: ENE 6 km/h
Temperatura: 17°C
Rocío: 10°C
Humedad: 64%
Barómetro: 1015 hPa
Resumen: Despejado
Visibilidad: greater than 10 km
2018/05/27 07:30 LEVS 270730Z 06003KT 010V120 CAVOK 17/10 Q1015
LEGT - Madrid/Getafe
Actualización: 27/05/2018 09:00
Despejado
Despejado
 Viento del ENE
Viento: ENE 2 km/h
Temperatura: 15°C
Rocío: 11°C
Humedad: 77%
Barómetro: 1015 hPa
Resumen: Despejado
Visibilidad: greater than 10 km
2018/05/27 07:00 LEGT 270700Z 07001KT CAVOK 15/11 Q1015
 
LETO - Madrid/Torrejón
Actualización: 27/05/2018 09:00
Despejado
Despejado
 Viento del varies
Viento: varies 4 km/h
Temperatura: 14°C
Rocío: 11°C
Humedad: 82%
Barómetro: 1015 hPa
Resumen: Despejado
Visibilidad: greater than 10 km
2018/05/27 07:00 LETO 270700Z VRB02KT CAVOK 14/11 Q1015 NOSIG
LEMG - Málaga
Actualización: 27/05/2018 09:30
Few Clouds
Few Clouds
 Viento del varies
Viento: varies 4 km/h
Temperatura: 20°C
Rocío: 17°C
Humedad: 83%
Barómetro: 1014 hPa
Nubosidad: Few Clouds
Visibilidad: 10 km
Cloud details: Few Clouds 2438 m
2018/05/27 07:30 LEMG 270730Z VRB02KT 9999 FEW080 20/17 Q1014 NOSIG
GEML - Melilla
Actualización: 27/05/2018 09:30
Despejado
Despejado
 Viento del NNE
Viento: NNE 7 km/h
Temperatura: 22°C
Rocío: 15°C
Humedad: 65%
Barómetro: 1015 hPa
Resumen: Despejado
Visibilidad: greater than 10 km
2018/05/27 07:30 GEML 270730Z 03004KT 350V070 CAVOK 22/15 Q1015
 
LEMH - Mahón
Actualización: 27/05/2018 09:30
Mostly Cloudy
Mostly Cloudy
 Viento del SE
Viento: SE 11 km/h
Temperatura: 20°C
Rocío: 18°C
Humedad: 88%
Barómetro: 1011 hPa
Nubosidad: Mostly Cloudy
Visibilidad: 10 km
Cloud details: Mostly Cloudy 366 m
2018/05/27 07:30 LEMH 270730Z 14006KT 110V180 9999 BKN012 20/18 Q1011
LEMO - Morón de La Frontera
Actualización: 27/05/2018 10:00
Few Clouds
Few Clouds
 Viento del SSO
Viento: SSO 13 km/h
Temperatura: 18°C
Rocío: 15°C
Humedad: 83%
Barómetro: 1015 hPa
Nubosidad: Few Clouds
Visibilidad: 9 km
Cloud details: Few Clouds 335 m
2018/05/27 08:00 LEMO 270800Z 21007KT 160V240 9000 FEW011 18/15 Q1015 NOSIG
LERI - Murcia/Alcantarilla
Actualización: 27/05/2018 09:00
Despejado
Despejado
 Viento del varies
Viento: varies 4 km/h
Temperatura: 19°C
Rocío: 14°C
Humedad: 73%
Barómetro: 1013 hPa
Resumen: Despejado
Visibilidad: greater than 10 km
2018/05/27 07:00 LERI 270700Z VRB02KT CAVOK 19/14 Q1013 NOSIG
 
LELC - Murcia/San Javier
Actualización: 27/05/2018 09:00
Few Clouds
Few Clouds
 Viento del O
Viento: O 6 km/h
Temperatura: 20°C
Rocío: 16°C
Humedad: 78%
Barómetro: 1014 hPa
Nubosidad: Few Clouds
Visibilidad: 10 km
Cloud details: Few Clouds 549 m
2018/05/27 07:00 LELC 270700Z 26003KT 170V330 9999 FEW018 20/16 Q1014 NOSIG
LEPA - Palma de Mallorca
Actualización: 27/05/2018 09:30
Partly Cloudy
Partly Cloudy
 Viento del varies
Viento: varies 2 km/h
Temperatura: 21°C
Rocío: 18°C
Humedad: 83%
Barómetro: 1011 hPa
Nubosidad: Partly Cloudy
Visibilidad: 10 km
Cloud details: Few Clouds 488 m
Partly Cloudy 640 m
2018/05/27 07:30 LEPA 270730Z VRB01KT 9999 FEW016 SCT021 21/18 Q1011 NOSIG
LEPP - Pamplona
Actualización: 27/05/2018 09:30
Mist, Parcialmente nublado
Mist, Parcialmente nublado
 Viento del calm
Viento: Calma
Temperatura: 15°C
Rocío: 14°C
Humedad: 94%
Barómetro: 1015 hPa
Resumen: Mist
Nubosidad: Partly Cloudy
Visibilidad: 5 km
Cloud details: Partly Cloudy 61 m
Partly Cloudy 762 m
2018/05/27 07:30 LEPP 270730Z 00000KT 5000 BR SCT002 SCT025 15/14 Q1015
 
LERS - Reus
Actualización: 27/05/2018 09:30
Mostly Cloudy
Mostly Cloudy
 Viento del varies
Viento: varies 4 km/h
Temperatura: 21°C
Rocío: 14°C
Humedad: 64%
Barómetro: 1013 hPa
Nubosidad: Mostly Cloudy
Visibilidad: 10 km
Cloud details: Few Clouds 610 m
Mostly Cloudy 914 m
2018/05/27 07:30 LERS 270730Z VRB02KT 9999 FEW020 BKN030 21/14 Q1013
LERT - Rota
Actualización: 27/05/2018 09:00
Partly Cloudy
Partly Cloudy
 Viento del SO
Viento: SO 13 km/h
Temperatura: 18°C
Rocío: 15°C
Humedad: 83%
Barómetro: 1015 hPa
Nubosidad: Partly Cloudy
Visibilidad: 10 km
Cloud details: Partly Cloudy 457 m
2018/05/27 07:00 LERT 270700Z 22007KT 190V260 9999 SCT015 18/15 Q1015 NOSIG
LELL - Sabadell
Actualización: 27/05/2018 09:30
Few Clouds
Few Clouds
 Viento del NNE
Viento: NNE 6 km/h
Temperatura: 21°C
Rocío: 14°C
Humedad: 64%
Barómetro: 1013 hPa
Nubosidad: Few Clouds
Visibilidad: 10 km
Cloud details: Few Clouds 914 m
2018/05/27 07:30 LELL 270730Z 03003KT 340V080 9999 FEW030 21/14 Q1013
 
LESA - Salamanca
Actualización: 27/05/2018 09:30
Despejado
Despejado
 Viento del calm
Viento: Calma
Temperatura: 13°C
Rocío: 10°C
Humedad: 82%
Barómetro: 1016 hPa
Resumen: Despejado
Visibilidad: greater than 10 km
2018/05/27 07:30 LESA 270730Z 00000KT CAVOK 13/10 Q1016
LESO - San Sebastián
Actualización: 27/05/2018 09:30
Cubierto
Cubierto
 Viento del calm
Viento: Calma
Temperatura: 17°C
Rocío: 16°C
Humedad: 94%
Barómetro: 1015 hPa
Nubosidad: Cubierto
Visibilidad: 9 km
Cloud details: Few Clouds 274 m
Cubierto 549 m
2018/05/27 07:30 LESO 270730Z 00000KT 9000 4000S FEW009 OVC018 17/16 Q1015
LEXJ - Santander
Actualización: 27/05/2018 09:30
Mostly Cloudy
Mostly Cloudy
 Viento del calm
Viento: Calma
Temperatura: 17°C
Rocío: 16°C
Humedad: 94%
Barómetro: 1015 hPa
Nubosidad: Mostly Cloudy
Visibilidad: 6 km
Cloud details: Few Clouds 366 m
Partly Cloudy 640 m
Mostly Cloudy 1036 m
2018/05/27 07:30 LEXJ 270730Z 00000KT 6000 FEW012 SCT021 BKN034 17/16 Q1015
 
LEPA - Palma de Mallorca
Actualización: 27/05/2018 09:30
Partly Cloudy
Partly Cloudy
 Viento del varies
Viento: varies 2 km/h
Temperatura: 21°C
Rocío: 18°C
Humedad: 83%
Barómetro: 1011 hPa
Nubosidad: Partly Cloudy
Visibilidad: 10 km
Cloud details: Few Clouds 488 m
Partly Cloudy 640 m
2018/05/27 07:30 LEPA 270730Z VRB01KT 9999 FEW016 SCT021 21/18 Q1011 NOSIG
LEPP - Pamplona
Actualización: 27/05/2018 09:30
Mist, Parcialmente nublado
Mist, Parcialmente nublado
 Viento del calm
Viento: Calma
Temperatura: 15°C
Rocío: 14°C
Humedad: 94%
Barómetro: 1015 hPa
Resumen: Mist
Nubosidad: Partly Cloudy
Visibilidad: 5 km
Cloud details: Partly Cloudy 61 m
Partly Cloudy 762 m
2018/05/27 07:30 LEPP 270730Z 00000KT 5000 BR SCT002 SCT025 15/14 Q1015
LEST - Santiago de Compostela
Actualización: 27/05/2018 09:30
Cubierto
Cubierto
 Viento del NNO
Viento: NNO 11 km/h
Temperatura: 13°C
Rocío: 10°C
Humedad: 82%
Barómetro: 1016 hPa
Nubosidad: Cubierto
Visibilidad: 8 km
Cloud details: Few Clouds 518 m
Cubierto 671 m
2018/05/27 07:30 LEST 270730Z 34006KT 300V010 8000 FEW017 OVC022 13/10 Q1016 NOSIG
 
LEZL - Sevilla
Actualización: 27/05/2018 09:30
Mostly Cloudy
Mostly Cloudy
 Viento del SSO
Viento: SSO 6 km/h
Temperatura: 17°C
Rocío: 15°C
Humedad: 88%
Barómetro: 1015 hPa
Nubosidad: Mostly Cloudy
Visibilidad: 10 km
Cloud details: Partly Cloudy 244 m
Mostly Cloudy 488 m
2018/05/27 07:30 LEZL 270730Z 21003KT 180V270 9999 SCT008 BKN016 17/15 Q1015 NOSIG
GCXO - Tenerife
Actualización: 27/05/2018 09:30
Mostly Cloudy
Mostly Cloudy
 Viento del NO
Viento: NO 22 km/h
Temperatura: 13°C
Rocío: 10°C
Humedad: 82%
Barómetro: 1021 hPa
Nubosidad: Mostly Cloudy
Visibilidad: 10 km
Cloud details: Few Clouds 549 m
Mostly Cloudy 914 m
2018/05/27 07:30 GCXO 270730Z 31012KT 9999 FEW018 BKN030 13/10 Q1021 NOSIG
GCTS - Tenerife-Sur
Actualización: 27/05/2018 09:30
Mostly Cloudy
Mostly Cloudy
 Viento del varies
Viento: varies 4 km/h
Temperatura: 19°C
Rocío: 11°C
Humedad: 60%
Barómetro: 1020 hPa
Nubosidad: Mostly Cloudy
Visibilidad: 10 km
Cloud details: Partly Cloudy 1067 m
Mostly Cloudy 1433 m
2018/05/27 07:30 GCTS 270730Z VRB02KT 9999 SCT035 BKN047 19/11 Q1020 NOSIG
 
LEVC - Valencia
Actualización: 01/01/1970 01:00
NO Actualizado
unable to load LEVC data RC=404 Not Found
unable to load LEVC data RC=404 Not Found
 
LEVD - Valladolid
Actualización: 27/05/2018 09:30
Despejado
Despejado
 Viento del SSO
Viento: SSO 7 km/h
Temperatura: 13°C
Rocío: 11°C
Humedad: 88%
Barómetro: 1016 hPa
Resumen: Despejado
Visibilidad: greater than 10 km
2018/05/27 07:30 LEVD 270730Z 21004KT 180V240 CAVOK 13/11 Q1016
LEVX - Vigo
Actualización: 27/05/2018 09:30
Mist, Muy nuboso
Mist, Muy nuboso
 Viento del varies
Viento: varies 4 km/h
Temperatura: 13°C
Rocío: 13°C
Humedad: 100%
Barómetro: 1016 hPa
Resumen: Mist
Nubosidad: Mostly Cloudy
Visibilidad: 5 km
Cloud details: Few Clouds 91 m
Mostly Cloudy 274 m
2018/05/27 07:30 LEVX 270730Z VRB02KT 4500 BR FEW003 BKN009 13/13 Q1016 TEMPO 1500 BCFG
 
LEVT - Vitoria
Actualización: 27/05/2018 09:30
Patches of fog, Mist, Muy nuboso
Patches of fog, Mist, Muy nuboso
 Viento del varies
Viento: varies 2 km/h
Temperatura: 12°C
Rocío: 12°C
Humedad: 100%
Barómetro: 1016 hPa
Resumen: Patches of fog, Mist
Nubosidad: Mostly Cloudy
Visibilidad: 4 km
Cloud details: Mostly Cloudy 91 m
2018/05/27 07:30 LEVT 270730Z VRB01KT 3500 BCFG BR BKN003 12/12 Q1016
LEZG - Zaragoza
Actualización: 27/05/2018 09:30
Mostly Cloudy
Mostly Cloudy
 Viento del ONO
Viento: ONO 6 km/h
Temperatura: 18°C
Rocío: 16°C
Humedad: 88%
Barómetro: 1014 hPa
Nubosidad: Mostly Cloudy
Visibilidad: 10 km
Cloud details: Mostly Cloudy 610 m
2018/05/27 07:30 LEZG 270730Z 30003KT 250V340 9999 BKN020 18/16 Q1014

La estación de MeteoMurcia.com, publica sus datos en los siguientes proyectos:

Meteoclimatic www.awekas.at

W3Counter
Web Analytics